Cypress Inn, TN (38452)

6:42 PM CDT en Septiembre 02, 2014 (GMT -0500)
St Florian | Change Station
CLOSE
Current Station
Estación meteorológica personal
Location: Florence, AL
Altura: 673 ft
Estaciones meteorológicas cercanas

Alt 673 ft 34.88 °N, 87.64 °W | Updated 9 minutes ago

Despejado
Despejado
76.6 ° F
Sensación térmica 77 ° F
N
0.0
Viento Variable Viento desde ONO
Gusts 0.0 mph

Hoy
Alta -- | Baja -- ° F
--% Posibilidad de precipitaciones
Ayer
Alta -- | Baja -- ° F
Precip. -- pul
6:24 AM 7:16 PM
Cuarto creciente, 56% visible
Presión 29.96 pul
Visibilidad 10.0 Millas
Nubes Despejado
Índice de calor 77 ° F
Punto de rocío 75 ° F
Humedad 95%
Precipitaciones 0.32 pul
Espesor de la nieve No disponible.
UV 1 de una escala de 12
Polen 10.00 de una escala de 12
Calidad del aire No disponible.
Flu Activity No disponible.
METAR KMSL 022253Z AUTO 25007KT 10SM CLR 27/23 A2998 RMK AO2 RAE03 SLP146 P0000 T02720233

More Conditions Fewer Conditions

Presión 29.96 pul
Visibilidad 10.0 Millas
Nubes Despejado
Índice de calor 77 ° F
Punto de rocío 75 ° F
Humedad 95%
Precipitaciones 0.32 pul
Espesor de la nieve No disponible.
UV 1 de una escala de 12
Polen 10.00 de una escala de 12
Calidad del aire No disponible.
Flu Activity No disponible.
METAR KMSL 022253Z AUTO 25007KT 10SM CLR 27/23 A2998 RMK AO2 RAE03 SLP146 P0000 T02720233

More Conditions Fewer Conditions

10-Day Weather Forecast

Almanac

Astronomía

Sep. 02, 2014 Salida Puesta
Hora real 6:24 AM CDT 7:16 PM CDT
Crepúsculo civil 5:58 AM CDT 7:42 PM CDT
Crepúsculo náutico 5:28 AM CDT 8:12 PM CDT
Crepúsculo astronómico 4:56 AM CDT 8:44 PM CDT
Luna 1:52 PM CDT Sin puesta de luna
Horas de luz 13h 43m
Horas de luz
12h 51m
Tomorrow will be 2m 7s shorter.
Cuarto creciente, 56% of the Moon is Illuminated
Hoy
Cuarto creciente
Sep 8
Luna llena
Sep 15
Cuarto menguante
Sep 24
Nueva
Oct 1
Cuarto creciente

Extremos de hoy

Máximos del estado Bajos del estado

Community

WunderPhotos

Upload Photos

1,749,799 ¡fotos cargadas!

Nearby

Grosos de nieve

Estación Profundido Altura
No tenemos constancia de nieve nueva.

Actividad de terremotos

Ciudad Distance Mag. Tiempo y dato
Tiptonville, Tennessee 133 Millas 2.9 11:19 PM CDT
2014-08-31
Magnitud mínima muestra es 2,5.

Temperaturas de aguas costeras

Lugar Temperatura
Sin partes meteorológicos de las estaciones

Estaciones meteorológicas cercanas